createdAt,value
2017-12-12T00:02:25.763Z,1.07
2017-12-12T00:04:53.410Z,0.67
2017-12-12T00:07:21.038Z,1.00
2017-12-12T00:09:48.725Z,0.60
2017-12-12T00:12:17.808Z,0.70
2017-12-12T00:14:45.379Z,0.60
2017-12-12T00:17:12.952Z,0.80
2017-12-12T00:19:40.573Z,0.90
2017-12-12T00:22:08.169Z,0.80
2017-12-12T00:24:35.795Z,0.83
2017-12-12T00:27:03.419Z,0.70
2017-12-12T00:29:31.034Z,0.80
2017-12-12T00:31:58.635Z,0.83
2017-12-12T00:34:26.264Z,0.60
2017-12-12T00:36:53.869Z,0.65
2017-12-12T00:39:21.510Z,0.83
2017-12-12T00:41:49.879Z,0.67
2017-12-12T00:44:18.264Z,0.83
2017-12-12T00:46:46.644Z,0.60
2017-12-12T00:49:15.021Z,0.77
2017-12-12T00:51:43.395Z,0.93
2017-12-12T00:54:11.016Z,0.30
2017-12-12T00:56:38.604Z,0.83
2017-12-12T00:59:06.227Z,0.67
2017-12-12T01:01:33.866Z,0.60
2017-12-12T01:04:01.475Z,0.60
2017-12-12T01:06:29.071Z,0.70
2017-12-12T01:08:57.524Z,0.83
2017-12-12T01:11:25.123Z,0.53
2017-12-12T01:13:53.487Z,0.57
2017-12-12T01:16:21.151Z,0.90
2017-12-12T01:18:48.770Z,0.60
2017-12-12T01:21:16.372Z,0.63
2017-12-12T01:23:44.746Z,0.33
2017-12-12T01:26:12.382Z,0.40
2017-12-12T01:28:39.978Z,0.67
2017-12-12T01:31:08.395Z,0.40
2017-12-12T01:33:36.024Z,0.60
2017-12-12T01:36:04.421Z,0.43
2017-12-12T01:38:32.048Z,0.70
2017-12-12T01:40:59.668Z,0.70
2017-12-12T01:43:27.269Z,0.77
2017-12-12T01:45:54.935Z,0.43
2017-12-12T01:48:22.543Z,0.63
2017-12-12T01:50:50.176Z,0.40
2017-12-12T01:53:18.978Z,0.50
2017-12-12T01:55:46.609Z,0.30
2017-12-12T01:58:14.252Z,0.53
2017-12-12T02:00:41.955Z,0.57
2017-12-12T02:03:10.325Z,0.63
2017-12-12T02:05:37.932Z,0.60
2017-12-12T02:08:05.517Z,0.40
2017-12-12T02:10:33.108Z,0.50
2017-12-12T02:13:00.739Z,0.53
2017-12-12T02:15:28.316Z,0.37
2017-12-12T02:17:55.940Z,0.50
2017-12-12T02:20:23.597Z,0.43
2017-12-12T02:22:51.220Z,0.40
2017-12-12T02:25:18.827Z,0.40
2017-12-12T02:27:46.452Z,0.40
2017-12-12T02:30:14.816Z,0.47
2017-12-12T02:32:42.416Z,0.63
2017-12-12T02:35:10.007Z,0.40
2017-12-12T02:37:37.620Z,0.50
2017-12-12T02:40:05.981Z,0.30
2017-12-12T02:42:33.597Z,0.50
2017-12-12T02:45:01.182Z,0.43
2017-12-12T02:47:28.776Z,0.60
2017-12-12T02:49:57.149Z,0.47
2017-12-12T02:52:25.506Z,0.30
2017-12-12T02:54:53.083Z,0.40
2017-12-12T02:57:20.678Z,0.40
2017-12-12T02:59:48.267Z,0.50
2017-12-12T03:02:16.724Z,0.40
2017-12-12T03:04:44.299Z,0.30
2017-12-12T03:07:11.899Z,0.30
2017-12-12T03:09:39.503Z,0.60
2017-12-12T03:12:07.082Z,0.40
2017-12-12T03:14:34.678Z,0.40
2017-12-12T03:17:02.268Z,0.30
2017-12-12T03:19:30.647Z,0.40
2017-12-12T03:21:58.979Z,0.57
2017-12-12T03:24:26.588Z,0.40
2017-12-12T03:26:54.907Z,0.30
2017-12-12T03:29:22.487Z,0.30
2017-12-12T03:31:50.080Z,0.40
2017-12-12T03:34:18.389Z,0.30
2017-12-12T03:36:46.069Z,0.50
2017-12-12T03:39:13.651Z,0.40
2017-12-12T03:41:41.227Z,0.50
2017-12-12T03:44:08.812Z,0.53
2017-12-12T03:46:37.188Z,0.65
2017-12-12T03:49:05.508Z,0.50
2017-12-12T03:51:33.152Z,0.90
2017-12-12T03:54:00.736Z,1.13
2017-12-12T03:56:28.359Z,0.65
2017-12-12T03:58:56.712Z,0.60
2017-12-12T04:01:24.340Z,1.30
2017-12-12T04:03:51.980Z,0.90
2017-12-12T04:06:19.575Z,1.30
2017-12-12T04:08:47.180Z,0.90
2017-12-12T04:11:15.528Z,1.20
2017-12-12T04:13:43.106Z,1.55
2017-12-12T04:16:10.663Z,1.30
2017-12-12T04:18:38.234Z,1.45
2017-12-12T04:21:06.558Z,1.50
2017-12-12T04:23:34.121Z,1.50
2017-12-12T04:26:01.670Z,2.25
2017-12-12T04:28:29.257Z,1.67
2017-12-12T04:30:56.812Z,1.50
2017-12-12T04:33:24.418Z,2.00
2017-12-12T04:35:52.750Z,1.87
2017-12-12T04:38:20.296Z,1.70
2017-12-12T04:40:47.875Z,1.48
2017-12-12T04:43:15.438Z,1.73
2017-12-12T04:45:43.040Z,2.00
2017-12-12T04:48:11.355Z,2.00
2017-12-12T04:50:38.939Z,1.90
2017-12-12T04:53:06.508Z,1.73
2017-12-12T04:55:34.099Z,1.83
2017-12-12T04:58:02.404Z,2.05
2017-12-12T05:00:29.983Z,2.00
2017-12-12T05:02:57.548Z,2.17
2017-12-12T05:05:25.134Z,2.60
2017-12-12T05:07:52.685Z,1.83
2017-12-12T05:10:20.278Z,1.65
2017-12-12T05:12:48.582Z,2.12
2017-12-12T05:15:16.160Z,2.00
2017-12-12T05:17:43.723Z,1.87
2017-12-12T05:20:11.291Z,2.15
2017-12-12T05:22:38.855Z,2.33
2017-12-12T05:25:06.419Z,1.80
2017-12-12T05:27:34.033Z,1.60
2017-12-12T05:30:02.419Z,2.00
2017-12-12T05:32:29.978Z,2.33
2017-12-12T05:34:58.348Z,2.30
2017-12-12T05:37:25.903Z,2.17
2017-12-12T05:39:54.251Z,2.25
2017-12-12T05:42:21.808Z,2.47
2017-12-12T05:44:50.378Z,2.47
2017-12-12T05:47:17.990Z,2.55
2017-12-12T05:49:45.515Z,2.40
2017-12-12T05:52:13.075Z,1.85
2017-12-12T05:54:40.644Z,1.83
2017-12-12T05:57:08.211Z,2.00
2017-12-12T05:59:35.775Z,2.20
2017-12-12T06:02:03.359Z,2.28
2017-12-12T06:04:31.690Z,2.30
2017-12-12T06:06:59.290Z,3.00
2017-12-12T06:09:27.666Z,2.25
2017-12-12T06:11:56.008Z,2.33
2017-12-12T06:14:23.605Z,2.58
2017-12-12T06:16:51.928Z,1.98
2017-12-12T06:19:19.499Z,3.15
2017-12-12T06:21:47.059Z,2.78
2017-12-12T06:24:14.623Z,2.70
2017-12-12T06:26:42.213Z,2.28
2017-12-12T06:29:09.783Z,2.50
2017-12-12T06:31:38.154Z,3.33
2017-12-12T06:34:05.695Z,2.58
2017-12-12T06:36:33.252Z,2.55
2017-12-12T06:39:00.795Z,2.60
2017-12-12T06:41:28.368Z,3.08
2017-12-12T06:43:55.927Z,3.05
2017-12-12T06:46:23.500Z,3.05
2017-12-12T06:54:39.884Z,3.62
2017-12-12T06:57:07.564Z,5.28
2017-12-12T06:59:35.297Z,3.92
2017-12-12T07:02:03.671Z,2.55
2017-12-12T07:04:32.001Z,2.55
2017-12-12T07:06:59.604Z,2.78
2017-12-12T07:09:27.973Z,2.55
2017-12-12T07:11:55.580Z,2.70
2017-12-12T07:14:23.172Z,3.12
2017-12-12T07:16:50.826Z,2.70
2017-12-12T07:19:18.457Z,3.20
2017-12-12T07:21:46.086Z,2.97
2017-12-12T07:24:13.663Z,3.65
2017-12-12T07:26:42.004Z,3.12
2017-12-12T07:29:09.613Z,3.05
2017-12-12T07:31:37.192Z,2.67
2017-12-12T07:34:04.828Z,3.85
2017-12-12T07:36:32.432Z,3.70
2017-12-12T07:39:00.048Z,3.80
2017-12-12T07:41:28.400Z,3.75
2017-12-12T07:43:55.973Z,3.05
2017-12-12T07:46:24.345Z,2.55
2017-12-12T07:48:51.965Z,3.85
2017-12-12T07:51:19.568Z,3.70
2017-12-12T07:53:47.137Z,4.30
2017-12-12T07:56:14.747Z,4.10
2017-12-12T07:58:42.324Z,4.00
2017-12-12T08:01:09.921Z,6.82
2017-12-12T08:03:37.495Z,3.92
2017-12-12T08:06:05.866Z,3.65
2017-12-12T08:08:34.213Z,3.55
2017-12-12T08:11:01.805Z,3.80
2017-12-12T08:13:30.143Z,3.33
2017-12-12T08:15:57.763Z,3.87
2017-12-12T08:18:26.097Z,3.72
2017-12-12T08:20:53.711Z,3.35
2017-12-12T08:23:21.306Z,3.47
2017-12-12T08:25:48.888Z,3.33
2017-12-12T08:28:16.787Z,3.15
2017-12-12T08:30:45.166Z,3.60
2017-12-12T08:33:12.740Z,3.60
2017-12-12T08:35:40.349Z,3.12
2017-12-12T08:38:07.933Z,3.60
2017-12-12T08:40:35.528Z,3.45
2017-12-12T08:43:03.108Z,3.92
2017-12-12T08:45:30.720Z,3.03
2017-12-12T08:47:58.291Z,3.55
2017-12-12T08:50:26.645Z,3.30
2017-12-12T08:52:54.238Z,3.97
2017-12-12T08:55:21.836Z,3.80
2017-12-12T08:57:49.415Z,3.17
2017-12-12T09:00:16.995Z,3.78
2017-12-12T09:02:44.582Z,3.87
2017-12-12T09:05:12.208Z,4.30
2017-12-12T09:07:39.784Z,3.03
2017-12-12T09:10:07.388Z,3.05
2017-12-12T09:12:35.025Z,4.15
2017-12-12T09:15:03.366Z,3.53
2017-12-12T09:17:30.962Z,3.05
2017-12-12T09:19:59.306Z,2.60
2017-12-12T09:22:26.941Z,4.40
2017-12-12T09:24:54.527Z,3.87
2017-12-12T09:27:22.124Z,5.45
2017-12-12T09:29:50.460Z,4.50
2017-12-12T09:32:18.064Z,6.00
2017-12-12T09:34:45.646Z,3.33
2017-12-12T09:37:13.237Z,6.93
2017-12-12T09:39:40.816Z,4.12
2017-12-12T09:42:08.420Z,3.55
2017-12-12T09:44:36.001Z,3.00
2017-12-12T09:47:03.603Z,3.00
2017-12-12T09:49:31.197Z,4.75
2017-12-12T09:51:58.787Z,3.75
2017-12-12T09:54:26.369Z,2.67
2017-12-12T09:56:53.996Z,2.30
2017-12-12T09:59:21.602Z,2.50
2017-12-12T10:01:49.210Z,2.90
2017-12-12T10:04:16.818Z,2.33
2017-12-12T10:06:44.415Z,2.83
2017-12-12T10:09:12.760Z,3.20
2017-12-12T10:11:40.348Z,2.83
2017-12-12T10:14:08.694Z,2.47
2017-12-12T10:16:36.287Z,2.60
2017-12-12T10:19:04.657Z,3.37
2017-12-12T10:21:33.042Z,3.35
2017-12-12T10:24:00.620Z,2.27
2017-12-12T10:26:28.972Z,2.85
2017-12-12T10:28:56.553Z,2.60
2017-12-12T10:31:24.933Z,2.33
2017-12-12T10:33:52.524Z,3.28
2017-12-12T10:36:20.140Z,2.47
2017-12-12T10:38:47.709Z,2.78
2017-12-12T10:41:16.067Z,2.70
2017-12-12T10:43:43.642Z,2.70
2017-12-12T10:46:11.252Z,4.57
2017-12-12T10:48:39.604Z,3.08
2017-12-12T10:51:07.976Z,2.50
2017-12-12T10:53:36.328Z,2.67
2017-12-12T10:56:03.942Z,2.40
2017-12-12T10:58:31.532Z,2.40
2017-12-12T11:00:59.128Z,2.23
2017-12-12T11:03:26.693Z,2.42
2017-12-12T11:05:55.032Z,2.05
2017-12-12T11:08:22.597Z,1.90
2017-12-12T11:10:50.209Z,2.30
2017-12-12T11:13:17.770Z,2.45
2017-12-12T11:15:46.091Z,2.40
2017-12-12T11:18:13.696Z,2.47
2017-12-12T11:20:42.019Z,2.20
2017-12-12T11:23:09.658Z,2.80
2017-12-12T11:25:37.969Z,2.35
2017-12-12T11:28:05.572Z,4.23
2017-12-12T11:30:33.919Z,2.97
2017-12-12T11:33:01.516Z,2.65
2017-12-12T11:35:29.872Z,2.20
2017-12-12T11:37:57.454Z,2.90
2017-12-12T11:40:25.766Z,2.50
2017-12-12T11:42:53.360Z,2.50
2017-12-12T11:45:20.959Z,2.63
2017-12-12T11:47:49.296Z,2.50
2017-12-12T11:50:16.891Z,2.35
2017-12-12T11:52:45.235Z,2.60
2017-12-12T11:55:12.839Z,2.40
2017-12-12T11:57:40.406Z,1.90
2017-12-12T12:00:07.999Z,1.97
2017-12-12T12:02:35.570Z,2.15
2017-12-12T12:05:03.163Z,1.92
2017-12-12T12:07:30.723Z,3.28
2017-12-12T12:09:58.295Z,2.08
2017-12-12T12:12:26.607Z,2.25
2017-12-12T12:14:54.188Z,2.50
2017-12-12T12:17:21.741Z,1.97
2017-12-12T12:19:49.358Z,1.80
2017-12-12T12:22:17.668Z,2.87
2017-12-12T12:24:45.230Z,1.80
2017-12-12T12:27:12.819Z,1.97
2017-12-12T12:29:40.381Z,2.10
2017-12-12T12:32:08.003Z,1.70
2017-12-12T12:34:35.551Z,2.43
2017-12-12T12:37:03.142Z,2.15
2017-12-12T12:39:30.718Z,1.90
2017-12-12T12:41:58.290Z,2.17
2017-12-12T12:44:25.852Z,2.50
2017-12-12T12:46:53.446Z,2.60
2017-12-12T12:49:21.799Z,1.95
2017-12-12T12:51:49.371Z,4.03
2017-12-12T12:54:16.943Z,2.30
2017-12-12T12:56:45.395Z,2.35
2017-12-12T12:59:12.939Z,2.40
2017-12-12T13:01:40.536Z,2.10
2017-12-12T13:04:08.863Z,2.45
2017-12-12T13:06:36.435Z,2.15
2017-12-12T13:09:04.007Z,2.10
2017-12-12T13:11:31.560Z,2.45
2017-12-12T13:13:59.132Z,2.43
2017-12-12T13:16:26.705Z,2.00
2017-12-12T13:18:54.296Z,1.80
2017-12-12T13:21:21.870Z,2.25
2017-12-12T13:23:49.458Z,2.13
2017-12-12T13:26:17.012Z,1.93
2017-12-12T13:28:44.587Z,2.15
2017-12-12T13:31:12.167Z,1.50
2017-12-12T13:33:39.755Z,2.97
2017-12-12T13:36:07.388Z,2.35
2017-12-12T13:38:34.982Z,2.03
2017-12-12T13:41:02.552Z,2.40
2017-12-12T13:43:30.159Z,2.40
2017-12-12T13:45:57.716Z,2.17
2017-12-12T13:48:25.298Z,2.28
2017-12-12T13:50:52.847Z,2.80
2017-12-12T13:53:20.451Z,2.27
2017-12-12T13:55:48.756Z,3.03
2017-12-12T13:58:16.325Z,1.90
2017-12-12T14:00:43.903Z,2.80
2017-12-12T14:03:11.467Z,2.20
2017-12-12T14:05:39.014Z,2.70
2017-12-12T14:08:06.597Z,2.47
2017-12-12T14:10:34.153Z,2.80
2017-12-12T14:13:01.727Z,3.05
2017-12-12T14:15:30.102Z,3.10
2017-12-12T14:17:58.422Z,2.37
2017-12-12T14:20:26.017Z,2.80
2017-12-12T14:22:53.576Z,4.05
2017-12-12T14:25:21.163Z,3.15
2017-12-12T14:27:48.716Z,3.37
2017-12-12T14:30:16.295Z,4.00
2017-12-12T14:32:44.634Z,3.17
2017-12-12T14:35:12.204Z,6.12
2017-12-12T14:37:39.767Z,3.28
2017-12-12T14:40:07.369Z,3.47
2017-12-12T14:42:34.971Z,3.70
2017-12-12T14:45:02.546Z,2.75
2017-12-12T14:47:30.201Z,3.03
2017-12-12T14:49:57.715Z,2.70
2017-12-12T14:52:25.292Z,3.15
2017-12-12T14:54:52.874Z,4.85
2017-12-12T14:57:20.447Z,3.00
2017-12-12T14:59:48.011Z,3.28
2017-12-12T15:02:15.604Z,3.40
2017-12-12T15:04:43.928Z,3.33
2017-12-12T15:07:11.515Z,3.22
2017-12-12T15:09:39.077Z,3.25
2017-12-12T15:12:06.670Z,4.40
2017-12-12T15:14:34.990Z,5.15
2017-12-12T15:17:02.597Z,4.40
2017-12-12T15:19:30.975Z,3.87
2017-12-12T15:21:58.532Z,4.05
2017-12-12T15:24:26.111Z,3.50
2017-12-12T15:26:54.445Z,3.97
2017-12-12T15:29:22.023Z,3.33
2017-12-12T15:31:49.581Z,3.62
2017-12-12T15:34:17.167Z,3.20
2017-12-12T15:36:45.505Z,3.47
2017-12-12T15:39:13.084Z,3.03
2017-12-12T15:41:40.633Z,3.17
2017-12-12T15:44:08.216Z,4.32
2017-12-12T15:46:36.543Z,3.97
2017-12-12T15:49:04.113Z,4.47
2017-12-12T15:51:32.438Z,3.92
2017-12-12T15:54:00.741Z,7.82
2017-12-12T15:56:28.306Z,5.20
2017-12-12T15:58:55.845Z,3.85
2017-12-12T16:01:23.408Z,4.10
2017-12-12T16:03:50.957Z,4.00
2017-12-12T16:06:19.285Z,4.18
2017-12-12T16:08:46.841Z,3.90
2017-12-12T16:11:14.399Z,6.25
2017-12-12T16:13:41.980Z,3.55
2017-12-12T16:16:09.535Z,6.80
2017-12-12T16:18:37.066Z,4.90
2017-12-12T16:21:04.648Z,4.53
2017-12-12T16:23:32.195Z,4.75
2017-12-12T16:25:59.733Z,3.83
2017-12-12T16:28:27.310Z,4.65
2017-12-12T16:30:54.852Z,3.00
2017-12-12T16:33:22.431Z,3.17
2017-12-12T16:35:49.973Z,2.55
2017-12-12T16:38:17.535Z,2.78
2017-12-12T16:40:45.113Z,2.83
2017-12-12T16:43:12.686Z,3.10
2017-12-12T16:45:40.228Z,3.55
2017-12-12T16:48:07.813Z,2.67
2017-12-12T16:50:35.362Z,2.60
2017-12-12T16:53:02.921Z,2.58
2017-12-12T16:55:30.452Z,2.60
2017-12-12T16:57:58.049Z,2.60
2017-12-12T17:00:25.591Z,2.45
2017-12-12T17:02:53.150Z,2.33
2017-12-12T17:05:20.694Z,3.05
2017-12-12T17:07:48.318Z,2.70
2017-12-12T17:10:15.858Z,3.50
2017-12-12T17:12:43.419Z,3.10
2017-12-12T17:15:10.945Z,2.47
2017-12-12T17:17:38.497Z,2.80
2017-12-12T17:20:06.037Z,3.33
2017-12-12T17:22:33.620Z,2.62
2017-12-12T17:25:01.175Z,3.08
2017-12-12T17:27:28.724Z,2.85
2017-12-12T17:29:57.058Z,2.62
2017-12-12T17:32:24.603Z,2.78
2017-12-12T17:34:52.185Z,2.45
2017-12-12T17:37:19.731Z,2.55
2017-12-12T17:39:47.305Z,2.30
2017-12-12T17:42:14.871Z,2.22
2017-12-12T17:44:42.426Z,2.28
2017-12-12T17:47:09.992Z,2.15
2017-12-12T17:49:37.550Z,2.30
2017-12-12T17:52:05.095Z,2.17
2017-12-12T17:54:32.652Z,2.80
2017-12-12T17:57:00.204Z,2.40
2017-12-12T17:59:27.744Z,2.50
2017-12-12T18:01:55.299Z,2.90
2017-12-12T18:04:22.852Z,1.92
2017-12-12T18:06:51.163Z,2.30
2017-12-12T18:09:18.702Z,3.20
2017-12-12T18:11:46.263Z,2.80
2017-12-12T18:14:13.807Z,3.70
2017-12-12T18:16:42.144Z,2.85
2017-12-12T18:19:09.685Z,2.55
2017-12-12T18:21:37.246Z,4.03
2017-12-12T18:24:04.792Z,9.32
2017-12-12T18:26:32.359Z,2.83
2017-12-12T18:28:59.895Z,2.60
2017-12-12T18:31:27.482Z,4.20
2017-12-12T18:33:56.904Z,2.10
2017-12-12T18:36:24.461Z,4.72
2017-12-12T18:38:52.073Z,2.47
2017-12-12T18:41:20.378Z,2.10
2017-12-12T18:43:47.927Z,1.92
2017-12-12T18:46:15.479Z,2.03
2017-12-12T18:48:43.040Z,1.85
2017-12-12T18:51:10.587Z,2.12
2017-12-12T18:53:38.916Z,2.22
2017-12-12T18:56:06.452Z,2.60
2017-12-12T18:58:34.020Z,1.85
2017-12-12T19:01:01.562Z,2.28
2017-12-12T19:03:29.143Z,2.37
2017-12-12T19:05:56.687Z,2.62
2017-12-12T19:08:24.256Z,2.20
2017-12-12T19:10:51.811Z,1.70
2017-12-12T19:13:19.377Z,2.30
2017-12-12T19:15:46.926Z,2.40
2017-12-12T19:18:14.509Z,1.67
2017-12-12T19:20:42.041Z,3.05
2017-12-12T19:23:09.650Z,2.70
2017-12-12T19:25:37.189Z,1.85
2017-12-12T19:28:04.802Z,2.58
2017-12-12T19:30:33.103Z,2.00
2017-12-12T19:33:00.716Z,2.40
2017-12-12T19:35:28.252Z,2.87
2017-12-12T19:37:55.850Z,2.90
2017-12-12T19:40:23.398Z,2.08
2017-12-12T19:42:50.999Z,2.47
2017-12-12T19:45:18.610Z,2.45
2017-12-12T19:47:46.169Z,2.05
2017-12-12T19:50:13.719Z,1.85
2017-12-12T19:52:41.250Z,2.17
2017-12-12T19:55:08.858Z,3.42
2017-12-12T19:57:37.155Z,2.87
2017-12-12T20:00:04.758Z,2.78
2017-12-12T20:02:32.288Z,2.53
2017-12-12T20:05:00.670Z,2.50
2017-12-12T20:07:28.967Z,2.50
2017-12-12T20:09:56.808Z,2.55
2017-12-12T20:12:26.130Z,2.70
2017-12-12T20:14:54.105Z,3.10
2017-12-12T20:17:22.405Z,2.75
2017-12-12T20:19:50.222Z,2.85
2017-12-12T20:22:19.192Z,2.58
2017-12-12T20:24:47.371Z,2.20
2017-12-12T20:27:16.069Z,2.00
2017-12-12T20:29:43.965Z,2.30
2017-12-12T20:32:11.786Z,2.15
2017-12-12T20:34:40.287Z,1.85
2017-12-12T20:37:08.831Z,2.00
2017-12-12T20:39:36.370Z,2.47
2017-12-12T20:42:03.969Z,2.33
2017-12-12T20:44:31.506Z,2.22
2017-12-12T20:46:59.062Z,2.67
2017-12-12T20:49:26.616Z,2.35
2017-12-12T20:51:54.215Z,2.50
2017-12-12T20:54:21.804Z,2.90
2017-12-12T20:56:49.360Z,2.80
2017-12-12T20:59:16.945Z,2.45
2017-12-12T21:01:44.564Z,3.05
2017-12-12T21:04:12.154Z,2.50
2017-12-12T21:06:40.744Z,2.30
2017-12-12T21:09:09.077Z,2.33
2017-12-12T21:11:36.644Z,2.58
2017-12-12T21:14:04.250Z,2.00
2017-12-12T21:16:31.822Z,3.58
2017-12-12T21:18:59.430Z,2.85
2017-12-12T21:21:26.963Z,2.42
2017-12-12T21:23:54.568Z,2.50
2017-12-12T21:26:22.108Z,2.10
2017-12-12T21:28:49.717Z,3.10
2017-12-12T21:31:17.247Z,1.87
2017-12-12T21:33:44.862Z,2.33
2017-12-12T21:36:12.451Z,2.30
2017-12-12T21:38:40.059Z,2.83
2017-12-12T21:41:08.415Z,2.80
2017-12-12T21:43:36.017Z,2.75
2017-12-12T21:46:03.555Z,3.50
2017-12-12T21:48:31.877Z,2.70
2017-12-12T21:50:59.404Z,2.70
2017-12-12T21:53:26.989Z,2.87
2017-12-12T21:55:54.582Z,2.47
2017-12-12T21:58:22.130Z,2.58
2017-12-12T22:00:49.727Z,2.58
2017-12-12T22:03:18.105Z,3.40
2017-12-12T22:05:46.432Z,3.00
2017-12-12T22:08:14.023Z,2.28
2017-12-12T22:10:41.619Z,3.00
2017-12-12T22:13:09.915Z,3.08
2017-12-12T22:15:37.518Z,2.78
2017-12-12T22:18:05.053Z,2.28
2017-12-12T22:20:32.659Z,2.12
2017-12-12T22:23:00.187Z,3.08
2017-12-12T22:25:28.545Z,2.80
2017-12-12T22:27:56.072Z,4.20
2017-12-12T22:30:23.638Z,2.90
2017-12-12T22:32:51.935Z,2.70
2017-12-12T22:35:19.483Z,4.22
2017-12-12T22:37:47.015Z,3.25
2017-12-12T22:40:14.567Z,2.75
2017-12-12T22:42:42.097Z,2.78
2017-12-12T22:45:09.642Z,3.00
2017-12-12T22:47:37.175Z,3.37
2017-12-12T22:50:04.771Z,3.30
2017-12-12T22:52:32.298Z,3.62
2017-12-12T22:55:00.607Z,3.70
2017-12-12T22:57:28.148Z,3.17
2017-12-12T22:59:55.703Z,3.78
2017-12-12T23:02:23.249Z,3.90
2017-12-12T23:04:51.562Z,3.67
2017-12-12T23:07:19.090Z,2.92
2017-12-12T23:09:47.424Z,2.90
2017-12-12T23:12:14.968Z,3.35
2017-12-12T23:14:42.496Z,3.25
2017-12-12T23:17:10.048Z,2.95
2017-12-12T23:19:38.349Z,3.30
2017-12-12T23:22:05.911Z,3.35
2017-12-12T23:24:33.443Z,3.72
2017-12-12T23:27:01.759Z,3.55
2017-12-12T23:29:29.296Z,13.23
2017-12-12T23:31:56.859Z,4.78
2017-12-12T23:34:24.400Z,4.10
2017-12-12T23:36:52.720Z,4.18
2017-12-12T23:39:20.241Z,4.05
2017-12-12T23:41:48.547Z,4.65
2017-12-12T23:44:16.088Z,7.43
2017-12-12T23:46:43.650Z,3.87
2017-12-12T23:49:11.176Z,3.30
2017-12-12T23:51:38.717Z,4.40
2017-12-12T23:54:07.041Z,5.87
2017-12-12T23:56:35.334Z,3.90
2017-12-12T23:59:02.883Z,8.13
